Time;durP1;ratioP1;P1;durP2;ratioP2;P2;SDS_P1;SDS_P2;PMS_P1;PMS_P2;Temp;Humidity;BMP_temperature;BMP_pressure;BME280_temperature;BME280_humidity;BME280_pressure;Samples;Min_cycle;Max_cycle;Signal;HPM_P1;HPM_P2
2022/06/10 00:00:53;;;;;;;6.53;2.13;;;12.90;99.90;;;;;;5052734;28;20463;-63
2022/06/10 00:03:23;;;;;;;7.60;2.20;;;12.90;99.90;;;;;;5060260;28;20127;-62
2022/06/10 00:05:50;;;;;;;5.18;1.90;;;13.00;99.90;;;;;;5058838;28;20036;-61
2022/06/10 00:08:20;;;;;;;5.82;2.75;;;12.80;99.90;;;;;;5061213;28;20056;-63
2022/06/10 00:10:49;;;;;;;8.20;2.75;;;12.80;99.90;;;;;;5058057;28;20113;-62
2022/06/10 00:13:15;;;;;;;5.90;1.70;;;12.80;99.90;;;;;;5060735;28;20080;-62
2022/06/10 00:15:41;;;;;;;8.43;2.42;;;12.80;99.90;;;;;;5060734;28;20477;-62
2022/06/10 00:18:07;;;;;;;4.72;2.15;;;12.90;99.90;;;;;;5050577;28;20147;-62
2022/06/10 00:20:34;;;;;;;8.02;2.25;;;12.70;99.90;;;;;;5055053;28;20542;-62
2022/06/10 00:23:00;;;;;;;7.40;2.05;;;12.80;99.90;;;;;;5058573;28;20040;-63
2022/06/10 00:25:27;;;;;;;5.95;1.92;;;12.70;99.90;;;;;;5059852;28;20560;-62
2022/06/10 00:27:53;;;;;;;9.77;2.28;;;12.80;99.90;;;;;;5058763;28;20181;-62
2022/06/10 00:30:22;;;;;;;5.22;2.15;;;12.70;99.90;;;;;;5056723;28;20049;-62
2022/06/10 00:32:48;;;;;;;6.25;2.60;;;12.70;99.90;;;;;;5053875;28;20033;-61
2022/06/10 00:35:15;;;;;;;14.18;3.45;;;12.70;99.90;;;;;;5052614;28;20056;-63
2022/06/10 00:37:41;;;;;;;8.30;2.20;;;12.60;99.90;;;;;;5050561;28;20102;-63
2022/06/10 00:40:22;;;;;;;8.13;2.28;;;13.20;99.90;;;;;;5054084;28;20056;-63
2022/06/10 00:42:48;;;;;;;5.68;1.88;;;12.60;99.90;;;;;;5054186;28;20131;-63
2022/06/10 00:45:51;;;;;;;7.75;2.20;;;12.60;99.90;;;;;;5053773;28;20059;-62
2022/06/10 00:48:33;;;;;;;7.90;2.38;;;12.60;99.90;;;;;;5053705;28;20044;-62
2022/06/10 00:51:19;;;;;;;5.35;2.13;;;12.60;99.90;;;;;;5052902;28;20106;-63
2022/06/10 00:53:50;;;;;;;4.70;2.15;;;12.60;99.90;;;;;;5058424;28;20465;-62
2022/06/10 00:56:19;;;;;;;8.10;1.90;;;12.50;99.90;;;;;;5053384;28;20087;-62
2022/06/10 00:58:56;;;;;;;9.38;2.55;;;12.50;99.90;;;;;;5053021;28;20041;-63
2022/06/10 01:01:22;;;;;;;5.38;2.30;;;12.50;99.90;;;;;;5057205;28;20032;-62
2022/06/10 01:03:50;;;;;;;8.40;2.40;;;12.50;99.90;;;;;;5050511;28;20059;-63
2022/06/10 01:06:16;;;;;;;8.35;2.70;;;12.40;99.90;;;;;;5054609;28;20041;-63
2022/06/10 01:08:44;;;;;;;4.68;2.08;;;12.40;99.90;;;;;;5056050;28;20087;-63
2022/06/10 01:11:24;;;;;;;5.53;2.30;;;12.40;99.90;;;;;;5054148;28;20032;-63
2022/06/10 01:14:16;;;;;;;9.80;2.63;;;12.40;99.90;;;;;;5050009;28;20041;-62
2022/06/10 01:17:08;;;;;;;10.55;2.67;;;12.40;99.90;;;;;;5054710;28;20455;-63
2022/06/10 01:20:05;;;;;;;4.50;1.57;;;12.30;99.90;;;;;;5054976;28;20048;-63
2022/06/10 01:23:05;;;;;;;4.15;2.15;;;12.30;99.90;;;;;;5052163;28;20048;-62
2022/06/10 01:25:55;;;;;;;4.00;1.92;;;12.30;99.90;;;;;;5051142;28;20486;-63
2022/06/10 01:29:03;;;;;;;7.10;2.20;;;12.20;99.90;;;;;;5056333;28;20044;-63
2022/06/10 01:32:00;;;;;;;7.10;2.90;;;12.30;99.90;;;;;;5049998;28;20552;-63
2022/06/10 01:34:27;;;;;;;6.10;2.17;;;12.30;99.90;;;;;;5050829;28;20044;-63
2022/06/10 01:37:00;;;;;;;4.20;2.20;;;12.20;99.90;;;;;;5056357;28;20060;-62
2022/06/10 01:39:47;;;;;;;7.60;2.50;;;12.20;99.90;;;;;;5054798;28;20040;-63
2022/06/10 01:42:19;;;;;;;5.65;2.65;;;12.20;99.90;;;;;;5053296;28;20622;-62
2022/06/10 01:45:14;;;;;;;7.35;2.63;;;12.20;99.90;;;;;;5054419;28;20048;-62
2022/06/10 01:47:47;;;;;;;6.53;2.55;;;12.10;99.90;;;;;;5048209;28;20051;-62
2022/06/10 01:50:27;;;;;;;7.82;2.58;;;12.10;99.90;;;;;;5054971;28;20045;-62
2022/06/10 01:53:00;;;;;;;5.57;2.28;;;12.10;99.90;;;;;;5051891;28;20937;-63
2022/06/10 01:55:45;;;;;;;7.90;2.63;;;12.10;99.90;;;;;;5053895;28;20207;-62
2022/06/10 01:58:41;;;;;;;4.88;2.03;;;12.10;99.90;;;;;;5049509;28;20049;-63
2022/06/10 02:01:12;;;;;;;5.57;2.30;;;12.00;99.90;;;;;;5050569;28;20737;-63
2022/06/10 02:03:43;;;;;;;6.32;2.55;;;12.00;99.90;;;;;;5052015;28;20044;-62
2022/06/10 02:06:12;;;;;;;6.13;2.60;;;11.90;99.90;;;;;;5055122;28;20044;-62
2022/06/10 02:08:44;;;;;;;4.85;2.28;;;11.90;99.90;;;;;;5051182;28;20056;-62
2022/06/10 02:11:12;;;;;;;;;;;11.90;99.90;;;;;;5053991;28;20489;-62
2022/06/10 02:13:47;;;;;;;4.75;2.03;;;11.80;99.90;;;;;;5054597;28;20019;-63
2022/06/10 02:16:16;;;;;;;8.57;2.55;;;11.80;99.90;;;;;;5050447;28;20049;-63
2022/06/10 02:18:57;;;;;;;7.43;2.45;;;11.80;99.90;;;;;;5054819;28;20048;-63
2022/06/10 02:21:35;;;;;;;5.55;2.40;;;11.80;99.90;;;;;;5052781;28;20055;-62
2022/06/10 02:24:17;;;;;;;4.22;2.47;;;11.80;99.90;;;;;;5052827;28;20037;-63
2022/06/10 02:26:43;;;;;;;4.57;2.80;;;11.70;99.90;;;;;;5050795;28;20048;-63
2022/06/10 02:29:14;;;;;;;5.90;2.63;;;11.70;99.90;;;;;;5057227;28;20049;-62
2022/06/10 02:31:48;;;;;;;5.13;2.58;;;11.70;99.90;;;;;;5052416;28;20119;-62
2022/06/10 02:34:14;;;;;;;9.45;2.50;;;11.70;99.90;;;;;;5053956;28;20072;-62
2022/06/10 02:36:59;;;;;;;8.07;2.90;;;11.70;99.90;;;;;;5054477;28;20086;-62
2022/06/10 02:39:34;;;;;;;5.53;2.90;;;11.60;99.90;;;;;;5054229;28;20072;-62
2022/06/10 02:42:08;;;;;;;6.80;2.90;;;11.60;99.90;;;;;;5054933;28;20087;-62
2022/06/10 02:44:49;;;;;;;4.28;2.38;;;11.70;99.90;;;;;;5052873;28;20460;-62
2022/06/10 02:47:26;;;;;;;7.82;2.92;;;11.60;99.90;;;;;;5057676;28;20077;-62
2022/06/10 02:49:52;;;;;;;5.10;2.67;;;11.60;99.90;;;;;;5053742;28;20047;-62
2022/06/10 02:52:21;;;;;;;4.13;2.25;;;11.60;99.90;;;;;;5055543;28;20047;-63
2022/06/10 02:54:47;;;;;;;8.20;3.30;;;11.60;99.90;;;;;;5055353;28;20041;-62
2022/06/10 02:57:17;;;;;;;5.30;2.50;;;11.60;99.90;;;;;;5054354;28;20124;-63
2022/06/10 03:02:56;;;;;;;7.60;3.05;;;11.60;99.90;;;;;;5053564;28;20041;-63
2022/06/10 03:05:33;;;;;;;6.85;2.70;;;11.90;99.90;;;;;;5047711;28;20033;-63
2022/06/10 03:08:49;;;;;;;8.55;2.72;;;11.60;99.90;;;;;;5052646;28;20622;-63
2022/06/10 03:11:30;;;;;;;9.18;2.50;;;11.60;99.90;;;;;;5032156;28;20422;-63
2022/06/10 03:14:27;;;;;;;7.35;2.97;;;11.60;99.90;;;;;;5012068;28;20056;-63
2022/06/10 03:17:02;;;;;;;6.82;2.85;;;12.10;99.90;;;;;;5045665;28;20084;-62
2022/06/10 03:19:57;;;;;;;10.80;3.28;;;11.50;99.90;;;;;;5053895;28;20095;-61
2022/06/10 03:22:52;;;;;;;8.13;2.53;;;12.20;99.90;;;;;;5054365;28;20048;-62
2022/06/10 03:25:37;;;;;;;9.73;2.80;;;11.50;99.90;;;;;;5056215;28;20135;-63
2022/06/10 03:28:19;;;;;;;10.32;3.40;;;11.50;99.90;;;;;;5050549;28;20049;-63
2022/06/10 03:31:02;;;;;;;7.18;2.33;;;11.50;99.90;;;;;;5050631;28;20174;-62
2022/06/10 03:33:34;;;;;;;8.18;2.78;;;11.50;99.90;;;;;;5044680;28;20088;-62
2022/06/10 03:36:13;;;;;;;8.98;2.80;;;11.40;99.90;;;;;;5053026;28;20516;-63
2022/06/10 03:38:44;;;;;;;10.55;3.00;;;11.50;99.90;;;;;;5054965;28;20124;-62
2022/06/10 03:41:23;;;;;;;9.18;2.75;;;11.50;99.90;;;;;;5054883;28;20052;-63
2022/06/10 03:43:51;;;;;;;12.50;3.35;;;11.50;99.90;;;;;;5051012;28;20094;-62
2022/06/10 03:46:20;;;;;;;10.68;3.42;;;11.60;99.90;;;;;;5050992;28;20051;-63
2022/06/10 03:48:48;;;;;;;8.60;3.55;;;11.50;99.90;;;;;;5051051;28;20033;-61
2022/06/10 03:51:16;;;;;;;8.55;2.85;;;11.50;99.90;;;;;;5049350;28;20119;-61
2022/06/10 03:53:42;;;;;;;11.50;3.38;;;11.50;99.90;;;;;;5053938;28;20391;-63
2022/06/10 03:56:08;;;;;;;9.63;3.00;;;11.50;99.90;;;;;;5054815;28;20262;-62
2022/06/10 03:58:34;;;;;;;7.22;3.05;;;11.50;99.90;;;;;;5058113;28;20111;-62
2022/06/10 04:01:00;;;;;;;9.60;2.78;;;11.60;99.90;;;;;;5053570;28;20147;-62
2022/06/10 04:03:26;;;;;;;7.03;3.03;;;11.60;99.90;;;;;;5053201;28;20090;-63
2022/06/10 04:05:52;;;;;;;7.18;2.63;;;11.60;99.90;;;;;;5054156;28;20041;-62
2022/06/10 04:08:17;;;;;;;13.15;3.05;;;11.60;99.90;;;;;;5051858;28;20093;-63
2022/06/10 04:10:43;;;;;;;7.13;2.75;;;11.60;99.90;;;;;;5053238;28;20549;-63
2022/06/10 04:13:10;;;;;;;5.40;2.22;;;11.70;99.90;;;;;;5059670;28;20051;-63
2022/06/10 04:15:36;;;;;;;8.63;2.25;;;11.70;99.90;;;;;;5053270;28;20505;-61
2022/06/10 04:18:04;;;;;;;10.52;2.58;;;11.80;99.90;;;;;;5051100;28;20083;-63
2022/06/10 04:20:35;;;;;;;6.70;3.28;;;11.80;99.90;;;;;;5053029;28;20040;-63
2022/06/10 04:23:02;;;;;;;7.68;2.63;;;11.90;99.90;;;;;;5050894;28;20512;-62
2022/06/10 04:25:29;;;;;;;5.85;2.47;;;12.00;99.90;;;;;;5054943;28;20128;-62
2022/06/10 04:27:55;;;;;;;7.18;2.50;;;12.10;99.90;;;;;;5054679;28;20041;-62
2022/06/10 04:30:30;;;;;;;8.65;3.20;;;12.10;99.90;;;;;;5052379;28;20040;-63
2022/06/10 04:32:57;;;;;;;6.38;2.60;;;12.20;99.90;;;;;;5056344;28;20053;-63
2022/06/10 04:35:24;;;;;;;6.40;3.20;;;12.30;99.90;;;;;;5054885;28;20048;-63
2022/06/10 04:37:50;;;;;;;7.43;2.58;;;12.40;99.90;;;;;;5053404;28;20044;-62
2022/06/10 04:40:19;;;;;;;12.57;3.28;;;12.50;99.90;;;;;;5054578;28;20485;-63
2022/06/10 04:42:49;;;;;;;11.00;3.88;;;12.60;99.90;;;;;;5057029;28;20033;-62
2022/06/10 04:45:18;;;;;;;5.78;2.92;;;12.60;99.90;;;;;;5056641;28;20680;-63
2022/06/10 04:47:43;;;;;;;9.18;2.97;;;12.80;99.90;;;;;;5051981;28;20087;-63
2022/06/10 04:50:12;;;;;;;10.77;3.30;;;12.90;99.90;;;;;;5056815;28;20068;-63
2022/06/10 04:52:38;;;;;;;10.32;3.38;;;12.90;99.90;;;;;;5054487;28;20334;-62
2022/06/10 04:55:05;;;;;;;17.20;3.65;;;13.00;99.90;;;;;;5056726;28;20405;-63
2022/06/10 04:57:31;;;;;;;5.63;2.97;;;13.10;99.90;;;;;;5052816;28;20044;-63
2022/06/10 04:59:57;;;;;;;14.68;2.88;;;13.10;99.90;;;;;;5057371;28;20045;-62
2022/06/10 05:02:23;;;;;;;9.68;2.70;;;13.10;99.90;;;;;;5051871;28;20054;-63
2022/06/10 05:04:48;;;;;;;6.00;2.42;;;13.20;99.90;;;;;;5052493;28;20118;-63
2022/06/10 05:07:14;;;;;;;9.40;2.75;;;13.30;99.90;;;;;;5054459;28;20200;-62
2022/06/10 05:09:40;;;;;;;10.50;3.05;;;13.30;99.90;;;;;;5036697;28;20456;-63
2022/06/10 05:12:05;;;;;;;8.95;3.25;;;13.30;99.90;;;;;;5055671;28;20436;-63
2022/06/10 05:14:31;;;;;;;8.38;2.65;;;13.40;99.90;;;;;;5054003;28;20037;-62
2022/06/10 05:16:57;;;;;;;6.10;2.53;;;13.40;99.90;;;;;;5058206;28;20049;-63
2022/06/10 05:19:24;;;;;;;10.85;3.15;;;13.40;99.90;;;;;;5054949;28;20058;-64
2022/06/10 05:21:50;;;;;;;5.43;2.60;;;13.40;99.90;;;;;;5051735;28;20049;-62
2022/06/10 05:24:16;;;;;;;7.30;2.97;;;13.50;99.90;;;;;;5055881;28;20047;-62
2022/06/10 05:26:41;;;;;;;9.10;2.88;;;13.50;99.90;;;;;;5052443;28;20087;-63
2022/06/10 05:29:07;;;;;;;9.55;2.80;;;13.60;99.90;;;;;;5058131;28;20424;-63
2022/06/10 05:31:33;;;;;;;8.38;3.10;;;13.60;99.90;;;;;;5056196;28;20041;-63
2022/06/10 05:36:43;;;;;;;11.75;3.10;;;13.70;99.90;;;;;;5053741;28;20049;-62
2022/06/10 05:39:09;;;;;;;8.02;2.78;;;13.70;99.90;;;;;;5057698;28;20094;-63
2022/06/10 05:44:19;;;;;;;8.63;3.08;;;13.80;99.90;;;;;;5054968;28;20083;-61
2022/06/10 05:46:48;;;;;;;9.15;3.50;;;13.80;99.90;;;;;;5053674;28;20044;-63
2022/06/10 05:49:14;;;;;;;9.52;3.33;;;13.90;99.90;;;;;;5060929;28;20063;-62
2022/06/10 05:51:40;;;;;;;13.18;3.03;;;13.90;99.90;;;;;;5060858;28;20033;-62
2022/06/10 05:54:05;;;;;;;8.75;2.78;;;13.90;99.90;;;;;;5054479;28;20473;-62
2022/06/10 05:56:31;;;;;;;11.05;3.42;;;14.00;99.90;;;;;;5057500;28;20116;-63
2022/06/10 05:58:57;;;;;;;9.93;3.33;;;14.00;99.90;;;;;;5059903;28;20510;-63
2022/06/10 06:01:22;;;;;;;9.32;3.42;;;14.10;99.90;;;;;;5056020;28;20041;-63
2022/06/10 06:03:49;;;;;;;8.30;3.13;;;15.00;99.90;;;;;;5054946;28;20100;-62
2022/06/10 06:06:14;;;;;;;7.05;3.10;;;14.20;99.90;;;;;;5054770;28;20485;-63
2022/06/10 06:08:40;;;;;;;8.00;2.72;;;14.30;99.90;;;;;;5053201;28;20039;-63
2022/06/10 06:11:07;;;;;;;13.38;3.55;;;14.40;99.90;;;;;;5056630;28;20044;-62
2022/06/10 06:13:33;;;;;;;7.45;3.15;;;14.50;99.90;;;;;;5055992;28;20045;-63
2022/06/10 06:15:58;;;;;;;14.43;4.25;;;14.60;99.90;;;;;;5053802;28;20110;-62
2022/06/10 06:18:24;;;;;;;11.02;3.38;;;14.60;99.90;;;;;;5052203;28;20057;-63
2022/06/10 06:20:50;;;;;;;12.50;3.80;;;14.60;99.90;;;;;;5052744;28;20097;-62
2022/06/10 06:23:15;;;;;;;15.32;3.90;;;14.70;99.90;;;;;;5054719;28;20071;-62
2022/06/10 06:25:41;;;;;;;11.57;3.30;;;14.70;99.90;;;;;;5058834;28;20073;-61
2022/06/10 06:28:07;;;;;;;7.20;3.60;;;14.70;99.90;;;;;;5056661;28;20075;-62
2022/06/10 06:30:35;;;;;;;15.23;3.65;;;14.60;99.90;;;;;;5054263;28;20520;-62
2022/06/10 06:33:04;;;;;;;12.27;4.93;;;14.60;99.90;;;;;;5052334;28;20080;-62
2022/06/10 06:35:31;;;;;;;10.38;4.10;;;14.60;99.90;;;;;;5054757;28;20044;-62
2022/06/10 06:37:57;;;;;;;12.18;4.32;;;14.60;99.90;;;;;;5045782;28;20061;-62
2022/06/10 06:40:23;;;;;;;11.10;4.45;;;14.50;99.90;;;;;;5046412;28;20049;-62
2022/06/10 06:42:49;;;;;;;11.30;3.78;;;14.60;99.90;;;;;;5052371;28;20420;-61
2022/06/10 06:45:16;;;;;;;11.48;4.78;;;14.60;99.90;;;;;;5051309;28;20103;-62
2022/06/10 06:47:42;;;;;;;7.88;4.47;;;14.60;99.90;;;;;;5045666;28;20095;-62
2022/06/10 06:50:10;;;;;;;16.98;4.60;;;14.60;99.90;;;;;;5048358;28;20913;-62
2022/06/10 06:52:36;;;;;;;14.73;5.13;;;14.70;99.90;;;;;;5050011;28;20124;-62
2022/06/10 06:55:03;;;;;;;10.88;4.65;;;14.80;99.90;;;;;;5048265;28;20136;-62
2022/06/10 06:57:29;;;;;;;13.80;4.75;;;14.80;99.90;;;;;;5045166;28;20098;-62
2022/06/10 07:00:05;;;;;;;12.82;4.75;;;14.90;99.90;;;;;;5049270;28;20090;-62
2022/06/10 07:02:32;;;;;;;16.00;5.97;;;14.90;99.90;;;;;;5049216;28;20082;-62
2022/06/10 07:04:58;;;;;;;20.73;5.78;;;15.00;99.90;;;;;;5051495;28;20389;-62
2022/06/10 07:07:25;;;;;;;12.90;5.18;;;15.10;99.90;;;;;;5045541;28;20045;-67
2022/06/10 07:09:50;;;;;;;13.75;4.80;;;15.10;99.90;;;;;;5045815;28;20098;-69
2022/06/10 07:12:16;;;;;;;14.85;5.10;;;15.20;99.90;;;;;;5056285;28;20036;-68
2022/06/10 07:14:42;;;;;;;16.02;5.22;;;15.20;99.90;;;;;;5054571;28;20623;-69
2022/06/10 07:17:08;;;;;;;9.73;4.63;;;15.20;99.90;;;;;;5045281;28;20084;-65
2022/06/10 07:19:33;;;;;;;9.32;3.95;;;15.30;99.90;;;;;;5054770;28;20608;-65
2022/06/10 07:21:59;;;;;;;12.00;4.75;;;15.30;99.90;;;;;;5044521;28;20709;-66
2022/06/10 07:24:25;;;;;;;18.10;4.95;;;15.30;99.90;;;;;;5045692;28;20397;-65
2022/06/10 07:26:52;;;;;;;14.35;4.68;;;15.40;99.90;;;;;;5049042;28;20049;-65
2022/06/10 07:29:18;;;;;;;7.93;4.45;;;15.40;99.90;;;;;;5056964;28;20125;-65
2022/06/10 07:31:45;;;;;;;11.98;5.22;;;15.40;99.90;;;;;;5053151;28;20076;-65
2022/06/10 07:34:11;;;;;;;25.58;5.53;;;15.50;99.90;;;;;;5058210;28;20120;-68
2022/06/10 07:36:39;;;;;;;13.55;4.68;;;15.50;99.90;;;;;;5055306;28;20140;-64
2022/06/10 07:39:05;;;;;;;7.75;4.35;;;15.60;99.90;;;;;;5054031;28;20048;-67
2022/06/10 07:44:20;;;;;;;11.65;4.95;;;15.90;99.90;;;;;;5048564;28;20078;-66
2022/06/10 07:46:47;;;;;;;13.25;4.82;;;15.70;99.90;;;;;;5047140;28;20041;-66
2022/06/10 07:49:12;;;;;;;10.93;4.22;;;15.70;99.90;;;;;;5049054;28;20084;-66
2022/06/10 07:51:38;;;;;;;7.72;4.85;;;15.70;99.90;;;;;;5048816;28;20150;-66
2022/06/10 07:54:04;;;;;;;17.60;4.75;;;15.80;99.90;;;;;;5045434;28;20064;-66
2022/06/10 07:56:30;;;;;;;8.63;4.03;;;15.90;99.90;;;;;;5048292;28;20041;-66
2022/06/10 07:58:58;;;;;;;10.27;4.63;;;16.10;99.90;;;;;;5048233;28;20062;-66
2022/06/10 08:01:25;;;;;;;9.77;4.32;;;16.10;99.90;;;;;;5047341;28;20501;-66
2022/06/10 08:03:50;;;;;;;9.75;5.25;;;16.20;99.90;;;;;;5049704;28;20059;-66
2022/06/10 08:06:17;;;;;;;7.80;4.35;;;16.30;99.90;;;;;;5057786;28;20044;-66
2022/06/10 08:08:43;;;;;;;8.23;5.18;;;16.20;99.90;;;;;;5055653;28;20047;-66
2022/06/10 08:11:09;;;;;;;5.47;3.75;;;16.30;99.90;;;;;;5052872;28;20037;-66
2022/06/10 08:13:34;;;;;;;12.90;4.65;;;16.30;99.90;;;;;;5050140;28;20090;-66
2022/06/10 08:16:00;;;;;;;12.15;3.97;;;16.40;99.90;;;;;;5055475;28;20124;-66
2022/06/10 08:18:31;;;;;;;8.15;4.10;;;16.50;99.90;;;;;;5048194;28;20103;-65
2022/06/10 08:23:42;;;;;;;8.15;3.35;;;16.50;99.90;;;;;;5047277;28;20052;-65
2022/06/10 08:26:08;;;;;;;7.13;3.70;;;16.50;99.90;;;;;;5050340;28;20616;-65
2022/06/10 08:28:36;;;;;;;10.38;3.58;;;16.30;99.90;;;;;;5054898;28;20041;-65
2022/06/10 08:31:02;;;;;;;8.45;3.75;;;16.30;99.90;;;;;;5062580;28;20120;-67
2022/06/10 08:33:28;;;;;;;5.18;3.08;;;16.30;99.90;;;;;;5047767;28;20520;-66
2022/06/10 08:35:53;;;;;;;7.05;3.92;;;16.30;99.90;;;;;;5058947;28;20048;-66
2022/06/10 08:38:19;;;;;;;9.45;4.80;;;16.30;99.90;;;;;;5061820;28;20063;-66
2022/06/10 08:41:07;;;;;;;10.65;4.95;;;16.40;99.90;;;;;;5052894;28;20127;-66
2022/06/10 08:43:38;;;;;;;12.60;6.10;;;16.50;99.90;;;;;;5049440;28;20424;-66
2022/06/10 08:46:28;;;;;;;16.80;5.93;;;16.50;99.90;;;;;;5056402;28;20129;-66
2022/06/10 08:49:10;;;;;;;9.65;4.93;;;16.50;99.90;;;;;;5052590;28;20268;-66
2022/06/10 08:51:54;;;;;;;10.60;4.53;;;16.60;99.90;;;;;;5047166;28;20044;-67
2022/06/10 08:54:30;;;;;;;11.27;4.93;;;16.70;99.90;;;;;;5047071;28;20048;-66
2022/06/10 08:57:02;;;;;;;9.57;4.72;;;17.20;99.90;;;;;;5060179;28;20044;-66
2022/06/10 08:59:39;;;;;;;7.97;4.90;;;16.90;99.90;;;;;;5054482;28;20143;-66
2022/06/10 09:02:12;;;;;;;10.50;4.55;;;16.90;99.90;;;;;;5051490;28;20049;-66
2022/06/10 09:04:38;;;;;;;11.80;4.50;;;17.10;99.90;;;;;;5056173;28;20127;-66
2022/06/10 09:07:11;;;;;;;9.15;5.15;;;16.90;99.90;;;;;;5046885;28;20096;-67
2022/06/10 09:09:40;;;;;;;12.80;5.78;;;17.00;99.90;;;;;;5046976;28;20144;-66
2022/06/10 09:12:18;;;;;;;12.57;5.53;;;16.80;99.90;;;;;;5049630;28;20056;-66
2022/06/10 09:14:44;;;;;;;16.70;6.38;;;16.90;99.90;;;;;;5057920;28;20044;-66
2022/06/10 09:17:15;;;;;;;14.32;6.10;;;16.80;99.90;;;;;;5067069;28;20068;-66
2022/06/10 09:20:05;;;;;;;12.50;5.78;;;16.80;99.90;;;;;;5066669;28;20047;-66
2022/06/10 09:22:48;;;;;;;12.98;6.05;;;16.80;99.90;;;;;;5065900;28;20040;-66
2022/06/10 09:25:33;;;;;;;13.65;6.43;;;16.80;99.90;;;;;;5062786;28;20051;-66
2022/06/10 09:28:01;;;;;;;15.48;6.60;;;16.80;99.90;;;;;;5056659;28;20045;-66
2022/06/10 09:30:58;;;;;;;8.68;5.07;;;16.80;99.90;;;;;;5055364;28;20044;-66
2022/06/10 09:33:30;;;;;;;10.43;4.72;;;16.80;99.90;;;;;;5047193;28;20073;-66
2022/06/10 09:36:17;;;;;;;13.52;5.80;;;17.10;99.90;;;;;;5053100;28;20072;-66
2022/06/10 09:38:43;;;;;;;11.45;5.93;;;16.80;99.90;;;;;;5054555;28;20898;-66
2022/06/10 09:41:28;;;;;;;7.85;4.68;;;16.90;99.90;;;;;;5057890;28;20056;-66
2022/06/10 09:44:09;;;;;;;8.80;4.68;;;17.00;99.90;;;;;;5055269;28;20056;-66
2022/06/10 09:46:47;;;;;;;12.65;5.00;;;17.10;99.90;;;;;;5055356;28;20127;-66
2022/06/10 09:49:31;;;;;;;11.50;4.97;;;17.10;99.90;;;;;;5054686;28;20044;-66
2022/06/10 09:52:04;;;;;;;12.63;5.38;;;17.20;99.90;;;;;;5054883;28;20056;-66
2022/06/10 09:54:49;;;;;;;10.02;6.28;;;17.30;99.90;;;;;;5055212;28;20497;-66
2022/06/10 09:57:23;;;;;;;10.73;4.85;;;17.40;99.90;;;;;;5052048;28;20044;-66
2022/06/10 10:00:11;;;;;;;17.38;5.97;;;17.50;99.90;;;;;;5050964;28;20044;-66
2022/06/10 10:02:55;;;;;;;8.63;4.88;;;17.50;99.90;;;;;;5049674;28;20045;-66
2022/06/10 10:05:38;;;;;;;11.50;4.50;;;17.60;99.90;;;;;;5046132;28;20045;-65
2022/06/10 10:08:09;;;;;;;11.40;5.00;;;17.60;99.90;;;;;;5046243;28;20064;-64
2022/06/10 10:10:50;;;;;;;8.20;5.25;;;17.50;99.90;;;;;;5046174;28;20045;-64
2022/06/10 10:13:35;;;;;;;15.20;5.43;;;17.50;99.90;;;;;;5045151;28;20060;-64
2022/06/10 10:16:25;;;;;;;8.70;4.75;;;17.40;99.90;;;;;;5045288;28;20048;-64
2022/06/10 10:19:14;;;;;;;14.77;5.43;;;17.40;99.90;;;;;;5045000;28;20063;-64
2022/06/10 10:22:11;;;;;;;16.13;6.38;;;17.30;99.90;;;;;;5045536;28;20041;-64
2022/06/10 10:24:40;;;;;;;10.80;5.70;;;17.20;99.90;;;;;;5046159;28;20794;-65
2022/06/10 10:27:36;;;;;;;12.60;5.97;;;17.20;99.90;;;;;;5048709;28;20341;-65
2022/06/10 10:30:19;;;;;;;16.98;6.35;;;17.30;99.90;;;;;;5065286;28;20044;-65
2022/06/10 10:32:55;;;;;;;14.80;5.85;;;17.40;99.90;;;;;;5065111;28;20546;-65
2022/06/10 10:35:29;;;;;;;14.65;6.45;;;17.50;99.90;;;;;;5057558;28;20041;-65
2022/06/10 10:38:00;;;;;;;14.00;6.32;;;17.60;99.90;;;;;;5045964;28;20067;-65
2022/06/10 10:40:47;;;;;;;17.80;7.95;;;17.70;99.90;;;;;;5049463;28;20084;-65
2022/06/10 10:43:21;;;;;;;17.35;7.03;;;17.70;99.90;;;;;;5064118;28;20571;-64
2022/06/10 10:46:07;;;;;;;17.88;6.35;;;17.60;99.90;;;;;;5065678;28;20044;-65
2022/06/10 10:48:36;;;;;;;18.15;6.55;;;17.80;99.90;;;;;;5064547;28;20058;-65
2022/06/10 10:51:24;;;;;;;9.10;5.50;;;17.60;99.90;;;;;;5048382;28;20041;-65
2022/06/10 10:53:55;;;;;;;13.98;5.70;;;17.60;99.90;;;;;;5063255;28;20048;-64
2022/06/10 10:56:32;;;;;;;16.77;6.43;;;17.60;99.90;;;;;;5047209;28;20049;-64
2022/06/10 10:58:58;;;;;;;13.70;5.97;;;17.60;99.90;;;;;;5045575;28;20045;-65
2022/06/10 11:01:46;;;;;;;9.65;6.13;;;17.60;99.90;;;;;;5046005;28;20090;-64
2022/06/10 11:04:25;;;;;;;11.20;5.95;;;17.60;99.90;;;;;;5047807;28;20049;-65
2022/06/10 11:07:05;;;;;;;8.77;4.80;;;17.80;99.90;;;;;;5049701;28;20056;-64
2022/06/10 11:09:32;;;;;;;11.20;5.25;;;17.80;99.90;;;;;;5048719;28;20056;-65
2022/06/10 11:12:03;;;;;;;8.45;5.32;;;17.90;99.90;;;;;;5049348;28;20556;-65
2022/06/10 11:14:35;;;;;;;9.43;5.65;;;18.00;99.90;;;;;;5049592;28;20049;-65
2022/06/10 11:17:01;;;;;;;10.30;5.50;;;18.00;99.90;;;;;;5068625;28;20061;-65
2022/06/10 11:19:49;;;;;;;8.95;5.05;;;18.00;99.90;;;;;;5069508;28;20051;-65
2022/06/10 11:22:20;;;;;;;7.47;4.28;;;18.00;99.90;;;;;;5069935;28;20129;-65
2022/06/10 11:24:49;;;;;;;10.02;4.28;;;18.20;99.90;;;;;;5068670;28;20051;-64
2022/06/10 11:27:31;;;;;;;4.40;3.60;;;18.30;99.90;;;;;;5069398;28;20091;-65
2022/06/10 11:30:01;;;;;;;8.55;3.72;;;18.50;99.90;;;;;;5049036;28;20525;-65
2022/06/10 11:32:33;;;;;;;9.00;4.05;;;18.70;99.90;;;;;;5049153;28;20033;-65
2022/06/10 11:35:03;;;;;;;7.60;3.97;;;18.70;99.90;;;;;;5049381;28;20048;-64
2022/06/10 11:37:40;;;;;;;6.07;3.53;;;18.70;99.90;;;;;;5049130;28;20498;-64
2022/06/10 11:40:15;;;;;;;8.13;3.53;;;18.70;99.90;;;;;;5047379;28;20306;-64
2022/06/10 11:42:50;;;;;;;5.68;3.70;;;18.90;99.90;;;;;;5049384;28;20125;-64
2022/06/10 11:45:27;;;;;;;7.22;3.97;;;18.80;99.90;;;;;;5049353;28;20102;-65
2022/06/10 11:48:22;;;;;;;9.40;4.25;;;17.90;99.90;;;;;;5048649;28;20067;-65
2022/06/10 11:51:04;;;;;;;7.13;4.82;;;18.80;99.90;;;;;;5050751;28;20106;-64
2022/06/10 11:54:12;;;;;;;9.20;4.80;;;18.60;99.90;;;;;;5050506;28;20052;-65
2022/06/10 12:00:09;;;;;;;5.68;4.35;;;18.40;99.90;;;;;;5046729;28;20057;-64
2022/06/10 12:02:42;;;;;;;6.55;5.05;;;18.40;99.90;;;;;;5074404;28;20036;-64
2022/06/10 12:05:20;;;;;;;10.50;5.30;;;18.40;99.90;;;;;;5086909;28;20088;-64
2022/06/10 12:08:11;;;;;;;8.73;5.28;;;18.40;99.90;;;;;;5067762;28;20032;-65
2022/06/10 12:11:06;;;;;;;11.67;5.17;;;18.50;99.90;;;;;;5066860;28;20128;-65
2022/06/10 12:13:41;;;;;;;10.65;5.50;;;18.40;99.90;;;;;;5051948;28;20547;-64
2022/06/10 12:16:09;;;;;;;13.25;5.50;;;18.40;99.90;;;;;;5049426;28;20057;-64
2022/06/10 12:18:45;;;;;;;10.57;4.70;;;18.40;99.90;;;;;;5047697;28;20061;-64
2022/06/10 12:21:21;;;;;;;6.25;4.25;;;18.40;99.90;;;;;;5046838;28;20029;-65
2022/06/10 12:23:47;;;;;;;10.65;5.60;;;18.50;99.90;;;;;;5053942;28;20048;-65
2022/06/10 12:26:35;;;;;;;10.90;5.82;;;18.60;99.90;;;;;;5046213;28;20276;-65
2022/06/10 12:29:25;;;;;;;9.60;4.65;;;18.70;99.90;;;;;;5045176;28;20049;-64
2022/06/10 12:31:54;;;;;;;10.10;4.40;;;18.70;99.90;;;;;;5048949;28;20124;-64
2022/06/10 12:34:26;;;;;;;7.28;5.18;;;18.90;99.90;;;;;;5049665;28;20175;-64
2022/06/10 12:36:54;;;;;;;;;;;19.10;99.90;;;;;;5051480;28;20048;-65
2022/06/10 12:39:31;;;;;;;8.30;6.03;;;19.40;99.90;;;;;;5052793;28;20049;-65
2022/06/10 12:42:23;;;;;;;26.23;7.20;;;19.60;99.90;;;;;;5051067;28;20086;-65
2022/06/10 12:44:55;;;;;;;14.70;6.07;;;19.90;99.90;;;;;;5050569;28;20111;-65
2022/06/10 12:47:27;;;;;;;11.85;5.20;;;20.10;99.90;;;;;;5054771;28;20112;-64
2022/06/10 12:49:59;;;;;;;7.28;4.80;;;20.10;99.90;;;;;;5051162;28;20105;-66
2022/06/10 12:52:50;;;;;;;8.05;3.90;;;20.10;99.90;;;;;;5057280;28;20522;-64
2022/06/10 12:55:20;;;;;;;10.52;3.85;;;20.00;99.90;;;;;;5052674;28;20044;-64
2022/06/10 12:57:48;;;;;;;7.32;3.30;;;19.90;99.90;;;;;;5047009;28;20044;-64
2022/06/10 13:00:17;;;;;;;9.77;3.35;;;19.80;99.90;;;;;;5047728;28;20136;-66
2022/06/10 13:02:46;;;;;;;3.67;2.08;;;19.80;99.90;;;;;;5054387;28;20048;-64
2022/06/10 13:05:43;;;;;;;5.97;1.70;;;19.80;99.90;;;;;;5065911;28;20504;-64
2022/06/10 13:08:30;;;;;;;5.35;1.70;;;20.00;99.90;;;;;;5029384;28;20551;-64
2022/06/10 13:10:57;;;;;;;5.38;1.65;;;20.30;99.90;;;;;;5046978;28;20782;-64
2022/06/10 13:13:23;;;;;;;5.20;1.80;;;20.60;99.90;;;;;;5065201;28;20090;-64
2022/06/10 13:16:24;;;;;;;5.72;2.28;;;20.80;99.90;;;;;;5059408;28;20383;-64
2022/06/10 13:18:57;;;;;;;4.40;1.73;;;20.90;99.90;;;;;;5045636;28;20052;-64
2022/06/10 13:21:32;;;;;;;3.20;1.50;;;20.90;99.90;;;;;;5047669;28;20421;-64
2022/06/10 13:24:10;;;;;;;5.82;1.65;;;20.90;99.90;;;;;;5046102;28;20084;-64
2022/06/10 13:26:36;;;;;;;3.28;1.70;;;21.00;99.90;;;;;;5044583;28;20041;-64
2022/06/10 13:29:14;;;;;;;4.90;2.28;;;21.00;99.90;;;;;;5046455;28;20047;-63
2022/06/10 13:31:53;;;;;;;3.95;1.70;;;20.90;99.90;;;;;;5046157;28;20041;-64